Impacts TAF Board INFO
FOR SITUATIONAL AWARENESS. NOT TO BE USED FOR FLIGHT PLANNING PURPOSES.
IDs:

KPDX - Portland Intl Arpt, OR, US

Issued at 2320 UTC 19 Feb 2018
Updated at 0131 UTC 20 Feb 2018
Potential Impact None Slight Moderate High
Time0053Z 20/02Z 20/03Z 20/04Z 20/05Z 20/06Z 20/07Z 20/08Z 20/09Z 20/10Z 20/11Z 20/12Z 20/13Z 20/14Z>>
Type OBS PRVL PRVL PRVL PRVL PRVL PRVL PRVL PRVL PRVL PRVL PRVL PRVL PRVL
VIS 10 >6 >6 >6 >6 >6 >6 >6 >6 >6 >6 >6 >6 >6
CIG -- 50 50 -- -- -- -- 80 80 80 80 80 80 80
Cover SCT BKN BKN SKC SKC SKC SKC OVC OVC OVC OVC OVC OVC OVC
FltCat VFR VFR VFR VFR VFR VFR VFR VFR VFR VFR VFR VFR VFR VFR
WX -- -- -- -- -- -- -- -- -- -- -- -- -- --
WDir 310 350 350 120 120 120 120 130 130 130 130 130 130 130
WSpd 6 5 5 4 4 4 4 3 3 3 3 3 3 3
WGst -- -- -- -- -- -- -- -- -- -- -- -- -- --

Raw TAF
KPDX 192320Z 2000/2024 35005KT P6SM SCT030 BKN050
  FM200400 12004KT P6SM SKC
  FM200800 13003KT P6SM SCT050 OVC080
  FM201500 11008KT 6SM -SN SCT025 OVC050
  FM201800 10010KT P6SM -RA BKN025 OVC040


Raw METAR
KPDX 200053Z 31006KT 10SM FEW040 FEW060 SCT250 04/M07 A3023 RMK AO2 SLP235 T00391067
KPDX 192353Z 00000KT 10SM SCT039 SCT050 03/M05 A3023 RMK AO2 SLP235 T00331050 10044 20006 53001
KPDX 192253Z 01003KT 10SM FEW045 SCT065 04/M04 A3022 RMK AO2 SLP232 T00441039

METAR Board
Radar Display
Forecast Discussion

FOR SITUATIONAL AWARENESS. NOT TO BE USED FOR FLIGHT PLANNING PURPOSES.